Time;durP1;ratioP1;P1;durP2;ratioP2;P2;SDS_P1;SDS_P2;PMS_P1;PMS_P2;Temp;Humidity;BMP_temperature;BMP_pressure;BME280_temperature;BME280_humidity;BME280_pressure;Samples;Min_cycle;Max_cycle;Signal;HPM_P1;HPM_P2
2022/11/07 00:01:40;;;;;;;;;;;;;;;7.78;100.00;99331.81;4994596;28;19959;-88
2022/11/07 00:04:05;;;;;;;;;;;;;;;7.80;100.00;99329.97;4994698;28;20012;-89
2022/11/07 00:06:30;;;;;;;;;;;;;;;7.86;100.00;99340.28;4994624;28;19922;-88
2022/11/07 00:08:57;;;;;;;;;;;;;;;7.89;100.00;99334.06;4994534;28;19914;-86
2022/11/07 00:11:22;;;;;;;;;;;;;;;7.92;100.00;99349.75;4994543;28;19922;-88
2022/11/07 00:13:47;;;;;;;;;;;;;;;7.96;100.00;99338.16;4991998;28;19918;-87
2022/11/07 00:16:12;;;;;;;;;;;;;;;8.00;100.00;99342.41;4994416;28;20013;-89
2022/11/07 00:18:38;;;;;;;;;;;;;;;8.03;100.00;99341.44;4993090;28;19918;-89
2022/11/07 00:21:08;;;;;;;;;;;;;;;8.07;100.00;99349.16;4994234;28;19920;-87
2022/11/07 00:23:34;;;;;;;;;;;;;;;8.11;100.00;99358.66;4994296;28;20289;-87
2022/11/07 00:26:03;;;;;;;;;;;;;;;8.16;100.00;99359.34;4994267;28;19922;-89
2022/11/07 00:28:31;;;;;;;;;;;;;;;8.20;100.00;99362.75;4991740;28;19914;-88
2022/11/07 00:30:57;;;;;;;;;;;;;;;8.24;100.00;99355.56;4992818;28;19949;-88
2022/11/07 00:33:22;;;;;;;;;;;;;;;8.28;100.00;99362.41;4991522;28;19968;-89
2022/11/07 00:35:48;;;;;;;;;;;;;;;8.32;100.00;99356.09;4988489;28;20025;-87
2022/11/07 00:38:13;;;;;;;;;;;;;;;8.33;100.00;99361.31;4988722;28;19922;-88
2022/11/07 00:40:38;;;;;;;;;;;;;;;8.37;100.00;99364.69;4974587;28;19918;-88
2022/11/07 00:43:04;;;;;;;;;;;;;;;8.39;100.00;99361.97;4985412;28;20358;-85
2022/11/07 04:33:58;;;;;;;;;;;;;;;8.52;100.00;99416.03;4988214;28;19933;-84
2022/11/07 04:36:23;;;;;;;;;;;;;;;8.54;100.00;99411.56;4994756;28;19926;-85
2022/11/07 04:38:49;;;;;;;;;;;;;;;8.58;100.00;99407.88;4994846;28;19933;-87
2022/11/07 04:41:21;;;;;;;;;;;;;;;8.60;100.00;99405.16;4994753;28;19922;-85
2022/11/07 04:43:49;;;;;;;;;;;;;;;8.64;100.00;99404.13;4994731;28;20291;-85
2022/11/07 04:46:15;;;;;;;;;;;;;;;8.66;100.00;99404.91;4992211;28;19922;-85
2022/11/07 04:48:40;;;;;;;;;;;;;;;8.71;100.00;99402.94;4994565;28;20005;-90
2022/11/07 04:51:08;;;;;;;;;;;;;;;8.74;100.00;99408.09;4993246;28;20435;-86
2022/11/07 04:53:42;;;;;;;;;;;;;;;8.75;100.00;99415.13;4972538;28;20009;-87
2022/11/07 04:56:07;;;;;;;;;;;;;;;8.79;100.00;99416.72;4973060;28;19925;-83
2022/11/07 04:58:33;;;;;;;;;;;;;;;8.81;100.00;99414.88;4972848;28;19918;-87
2022/11/07 05:00:58;;;;;;;;;;;;;;;8.83;100.00;99420.94;4971491;28;19950;-85
2022/11/07 05:03:23;;;;;;;;;;;;;;;8.87;100.00;99419.91;4972811;28;19922;-84
2022/11/07 05:05:48;;;;;;;;;;;;;;;8.90;100.00;99421.53;4956545;28;19929;-85
2022/11/07 05:08:14;;;;;;;;;;;;;;;8.91;100.00;99412.69;4972773;28;20301;-83
2022/11/07 05:10:39;;;;;;;;;;;;;;;8.94;100.00;99415.22;4972533;28;20373;-85
2022/11/07 05:13:04;;;;;;;;;;;;;;;8.96;100.00;99423.06;4972484;28;19925;-84
2022/11/07 05:15:30;;;;;;;;;;;;;;;8.27;100.00;99429.34;4971159;28;19918;-87
2022/11/07 05:17:55;;;;;;;;;;;;;;;7.34;100.00;99432.75;4981909;28;19968;-84
2022/11/07 05:20:34;;;;;;;;;;;;;;;7.04;100.00;99435.53;4994112;28;20312;-84
2022/11/07 05:23:13;;;;;;;;;;;;;;;6.85;100.00;99445.81;4994203;28;19918;-86
2022/11/07 05:25:39;;;;;;;;;;;;;;;6.76;100.00;99440.00;4993949;28;19973;-85
2022/11/07 05:28:05;;;;;;;;;;;;;;;6.53;100.00;99446.88;4993644;28;19926;-84
2022/11/07 05:30:31;;;;;;;;;;;;;;;6.44;100.00;99439.25;4992468;28;19958;-89
2022/11/07 05:32:56;;;;;;;;;;;;;;;6.38;100.00;99436.81;4993769;28;19957;-89
2022/11/07 05:35:22;;;;;;;;;;;;;;;6.30;100.00;99448.44;4994025;28;19925;-86
2022/11/07 05:37:47;;;;;;;;;;;;;;;6.24;100.00;99443.38;4993789;28;19914;-87
2022/11/07 05:40:13;;;;;;;;;;;;;;;6.18;100.00;99443.56;4993896;28;20399;-84
2022/11/07 05:42:38;;;;;;;;;;;;;;;6.16;100.00;99440.97;4993807;28;19913;-86
2022/11/07 05:45:03;;;;;;;;;;;;;;;6.04;100.00;99445.75;4993780;28;20016;-85
2022/11/07 05:47:29;;;;;;;;;;;;;;;5.99;100.00;99445.88;4992502;28;19925;-84
2022/11/07 08:54:45;;;;;;;;;;;;;;;8.60;100.00;99530.16;5352718;23;19929;-90
2022/11/07 08:57:33;;;;;;;;;;;;;;;8.62;100.00;99530.97;4993594;28;19965;-92
2022/11/07 08:59:59;;;;;;;;;;;;;;;8.66;100.00;99523.78;4978561;28;20424;-89
2022/11/07 09:02:30;;;;;;;;;;;;;;;8.68;100.00;99532.50;4994322;28;19956;-92
2022/11/07 09:04:55;;;;;;;;;;;;;;;8.71;100.00;99532.38;4994692;28;20008;-91
2022/11/07 09:07:28;;;;;;;;;;;;;;;8.73;100.00;99526.13;4992993;28;19953;-89
2022/11/07 09:09:56;;;;;;;;;;;;;;;8.78;100.00;99540.94;4992041;28;19957;-90
2022/11/07 09:12:21;;;;;;;;;;;;;;;8.81;100.00;99535.53;4992949;28;19921;-90
2022/11/07 09:14:46;;;;;;;;;;;;;;;8.81;100.00;99531.09;4993057;28;20431;-89
2022/11/07 09:17:12;;;;;;;;;;;;;;;8.85;100.00;99539.75;4993280;28;20016;-88
2022/11/07 09:19:46;;;;;;;;;;;;;;;8.88;100.00;99531.72;4992995;28;19922;-91
2022/11/07 09:22:11;;;;;;;;;;;;;;;9.22;100.00;99531.22;4994139;28;19992;-89
2022/11/07 09:24:39;;;;;;;;;;;;;;;7.94;100.00;99537.88;4991410;28;19918;-91
2022/11/07 09:27:05;;;;;;;;;;;;;;;7.36;100.00;99546.88;4992905;28;20009;-89
2022/11/07 09:29:30;;;;;;;;;;;;;;;7.06;100.00;99532.97;4993832;28;20359;-88
2022/11/07 09:35:07;;;;;;;;;;;;;;;6.72;100.00;99545.41;4985946;28;19918;-89
2022/11/07 09:37:32;;;;;;;;;;;;;;;6.62;100.00;99538.72;4993839;28;19924;-88
2022/11/07 09:39:58;;;;;;;;;;;;;;;6.59;100.00;99537.94;4992559;28;20266;-89
2022/11/07 09:42:46;;;;;;;;;;;;;;;6.51;100.00;99551.31;4992581;28;19918;-88
2022/11/07 09:45:12;;;;;;;;;;;;;;;6.39;100.00;99546.44;4992615;28;19957;-88
2022/11/07 09:47:46;;;;;;;;;;;;;;;6.32;100.00;99545.78;4993744;28;19984;-88
2022/11/07 09:50:27;;;;;;;;;;;;;;;6.30;100.00;99548.44;4992724;28;20292;-89
2022/11/07 09:53:34;;;;;;;;;;;;;;;;;;;;;
2022/11/07 09:56:06;;;;;;;;;;;;;;;6.16;100.00;99550.63;5173486;27;19923;-90
2022/11/07 09:58:53;;;;;;;;;;;;;;;6.11;100.00;99560.38;5172975;27;19967;-85
2022/11/07 10:01:21;;;;;;;;;;;;;;;6.04;100.00;99564.94;5154286;27;19921;-86
2022/11/07 10:03:46;;;;;;;;;;;;;;;5.99;100.00;99569.47;5173159;27;19919;-87
2022/11/07 10:06:27;;;;;;;;;;;;;;;5.95;100.00;99567.78;5154321;27;19922;-86
2022/11/07 10:08:59;;;;;;;;;;;;;;;5.92;100.00;99565.25;5171489;27;20273;-86
2022/11/07 10:11:27;;;;;;;;;;;;;;;5.91;100.00;99561.78;5172738;27;20446;-94
2022/11/07 10:14:15;;;;;;;;;;;;;;;5.92;100.00;99558.25;5173366;27;19919;-90
2022/11/07 10:16:46;;;;;;;;;;;;;;;5.86;100.00;99558.41;5154124;27;20365;-86
2022/11/07 10:19:21;;;;;;;;;;;;;;;5.82;100.00;99562.91;5154087;27;19915;-87
2022/11/07 10:22:05;;;;;;;;;;;;;;;5.81;100.00;99555.91;5172457;27;19919;-86
2022/11/07 10:24:43;;;;;;;;;;;;;;;5.71;100.00;99571.94;5171015;27;19922;-86
2022/11/07 10:27:12;;;;;;;;;;;;;;;5.72;100.00;99571.06;5172535;27;19919;-87
2022/11/07 10:29:51;;;;;;;;;;;;;;;5.72;100.00;99566.66;5153697;27;20038;-86
2022/11/07 10:32:37;;;;;;;;;;;;;;;5.65;100.00;99559.84;5172344;27;19915;-87
2022/11/07 10:35:05;;;;;;;;;;;;;;;5.60;100.00;99570.47;5153786;27;19915;-86
2022/11/07 10:37:31;;;;;;;;;;;;;;;5.58;100.00;99569.63;5172280;27;19915;-87
2022/11/07 10:39:58;;;;;;;;;;;;;;;5.60;100.00;99570.47;5152400;27;19915;-86
2022/11/07 10:42:26;;;;;;;;;;;;;;;5.58;100.00;99571.41;5172148;27;19927;-86
2022/11/07 10:44:54;;;;;;;;;;;;;;;5.57;100.00;99575.81;5172102;27;19915;-87
2022/11/07 10:47:26;;;;;;;;;;;;;;;5.45;100.00;99561.19;5172230;27;19923;-87
2022/11/07 10:50:15;;;;;;;;;;;;;;;;;;;;;
2022/11/07 10:53:08;;;;;;;;;;;;;;;5.44;100.00;99562.13;5171226;27;19918;-87
2022/11/07 10:55:44;;;;;;;;;;;;;;;5.46;100.00;99562.09;5153335;27;20009;-88
2022/11/07 10:58:19;;;;;;;;;;;;;;;5.42;100.00;99570.94;5172143;27;19915;-87
2022/11/07 11:00:55;;;;;;;;;;;;;;;5.39;100.00;99563.13;5171782;27;19975;-90
2022/11/07 11:03:25;;;;;;;;;;;;;;;5.40;100.00;99567.50;5164470;27;19915;-86
2022/11/07 11:05:50;;;;;;;;;;;;;;;5.42;100.00;99557.81;5139358;27;19958;-85
2022/11/07 11:08:17;;;;;;;;;;;;;;;5.31;100.00;99557.22;5156530;27;19985;-85
2022/11/07 11:10:43;;;;;;;;;;;;;;;5.33;100.00;99556.28;5157659;27;20434;-85
2022/11/07 11:13:30;;;;;;;;;;;;;;;5.32;100.00;99553.69;5157652;27;19915;-87
2022/11/07 11:15:57;;;;;;;;;;;;;;;5.34;100.00;99554.50;5139195;27;19926;-87
2022/11/07 11:18:23;;;;;;;;;;;;;;;5.32;100.00;99554.53;5139483;27;19958;-87
2022/11/07 11:21:01;;;;;;;;;;;;;;;5.28;100.00;99555.50;5157783;27;19919;-87
2022/11/07 11:23:34;;;;;;;;;;;;;;;5.29;100.00;99546.75;5156388;27;20430;-95
2022/11/07 11:26:15;;;;;;;;;;;;;;;5.32;100.00;99545.81;5138986;27;19919;-85
2022/11/07 11:29:13;;;;;;;;;;;;;;;5.27;100.00;99541.53;5138741;27;19959;-83
2022/11/07 11:31:41;;;;;;;;;;;;;;;5.24;100.00;99533.72;5099998;27;19921;-84
2022/11/07 11:34:25;;;;;;;;;;;;;;;5.27;100.00;99538.91;5157376;27;19968;-84
2022/11/07 11:36:53;;;;;;;;;;;;;;;5.22;100.00;99534.69;5156958;27;20361;-84
2022/11/07 11:39:54;;;;;;;;;;;;;;;5.24;100.00;99538.97;5155934;27;19925;-84
2022/11/07 11:42:19;;;;;;;;;;;;;;;5.23;100.00;99539.91;5053078;28;20302;-85
2022/11/07 11:44:45;;;;;;;;;;;;;;;5.20;100.00;99542.59;5116643;27;20018;-84
2022/11/07 11:47:19;;;;;;;;;;;;;;;5.16;100.00;99540.06;5156982;27;19922;-84
2022/11/07 11:49:58;;;;;;;;;;;;;;;5.17;100.00;99534.78;5156911;27;20319;-84
2022/11/07 11:52:24;;;;;;;;;;;;;;;5.11;100.00;99536.72;5156729;27;19919;-85
2022/11/07 11:54:51;;;;;;;;;;;;;;;5.11;100.00;99537.56;5136777;27;19923;-84
2022/11/07 11:57:25;;;;;;;;;;;;;;;5.13;100.00;99532.28;5157003;27;19922;-84
2022/11/07 12:00:02;;;;;;;;;;;;;;;5.11;100.00;99537.56;5138051;27;19950;-84
2022/11/07 12:02:34;;;;;;;;;;;;;;;5.13;100.00;99534.91;5138508;27;20009;-85
2022/11/07 12:04:59;;;;;;;;;;;;;;;5.16;100.00;99525.16;5156745;27;19968;-86
2022/11/07 12:07:37;;;;;;;;;;;;;;;5.14;100.00;99526.97;5157306;27;19915;-87
2022/11/07 12:10:08;;;;;;;;;;;;;;;5.15;100.00;99520.81;5136773;27;19965;-84
2022/11/07 12:12:55;;;;;;;;;;;;;;;5.73;100.00;99513.19;5153675;27;19930;-84
2022/11/07 12:15:38;;;;;;;;;;;;;;;6.97;100.00;99507.75;5130580;27;20329;-89
2022/11/07 12:18:29;;;;;;;;;;;;;;;9.88;100.00;99493.13;5131731;27;20375;-88
2022/11/07 12:21:10;;;;;;;;;;;;;;;8.06;100.00;99505.78;5120819;27;20028;-82
2022/11/07 12:23:50;;;;;;;;;;;;;;;7.75;100.00;99504.22;5146789;27;19915;-82
2022/11/07 12:26:23;;;;;;;;;;;;;;;7.67;100.00;99500.16;5155589;27;20401;-83
2022/11/07 12:28:59;;;;;;;;;;;;;;;7.64;100.00;99499.34;5143382;27;19923;-83
2022/11/07 12:31:36;;;;;;;;;;;;;;;7.65;100.00;99505.47;5136082;27;19943;-82
2022/11/07 12:34:17;;;;;;;;;;;;;;;7.69;100.00;99501.84;5135439;27;20006;-85
2022/11/07 12:37:02;;;;;;;;;;;;;;;7.71;100.00;99505.25;5118226;27;20006;-84
2022/11/07 12:39:27;;;;;;;;;;;;;;;7.76;100.00;99508.59;5137465;27;19927;-85
2022/11/07 12:42:04;;;;;;;;;;;;;;;7.78;100.00;99503.25;5153034;27;20293;-85
2022/11/07 12:44:43;;;;;;;;;;;;;;;7.84;100.00;99504.84;5147621;27;20391;-84
2022/11/07 12:47:15;;;;;;;;;;;;;;;7.86;100.00;99508.28;5138951;27;20014;-83
2022/11/07 12:49:57;;;;;;;;;;;;;;;7.89;100.00;99508.16;5116496;27;19923;-84
2022/11/07 12:52:34;;;;;;;;;;;;;;;7.95;100.00;99506.16;5115854;27;19927;-83
2022/11/07 12:55:35;;;;;;;;;;;;;;;7.98;100.00;99510.47;5117780;27;19919;-89
2022/11/07 12:58:01;;;;;;;;;;;;;;;8.03;100.00;99503.25;5065817;27;19926;-86
2022/11/07 13:00:27;;;;;;;;;;;;;;;8.06;100.00;99500.50;5117381;27;19930;-83
2022/11/07 13:03:01;;;;;;;;;;;;;;;8.07;100.00;99502.19;5114027;27;20286;-84
2022/11/07 13:05:45;;;;;;;;;;;;;;;8.12;100.00;99510.81;5115280;27;19919;-92
2022/11/07 13:08:16;;;;;;;;;;;;;;;8.17;100.00;99503.59;5121422;27;19926;-84
2022/11/07 13:10:53;;;;;;;;;;;;;;;8.16;100.00;99501.84;5133245;27;20474;-83
2022/11/07 13:13:31;;;;;;;;;;;;;;;8.19;100.00;99495.63;5134695;27;19923;-83
2022/11/07 13:16:15;;;;;;;;;;;;;;;8.23;100.00;99496.34;5134565;27;19927;-83
2022/11/07 13:18:40;;;;;;;;;;;;;;;8.25;100.00;99510.34;5134567;27;19915;-83
2022/11/07 13:21:05;;;;;;;;;;;;;;;8.26;100.00;99497.09;5134255;27;20445;-84
2022/11/07 13:23:31;;;;;;;;;;;;;;;8.30;100.00;99497.84;5133180;27;19916;-83
2022/11/07 13:26:01;;;;;;;;;;;;;;;8.32;100.00;99496.84;5134074;27;19915;-84
2022/11/07 13:28:37;;;;;;;;;;;;;;;8.34;100.00;99500.31;5134528;27;19920;-83
2022/11/07 13:31:03;;;;;;;;;;;;;;;8.36;100.00;99497.63;5134344;27;20362;-83
2022/11/07 13:33:30;;;;;;;;;;;;;;;8.39;100.00;99493.97;5134410;27;19921;-83
2022/11/07 13:35:57;;;;;;;;;;;;;;;8.40;100.00;99488.66;5134227;27;19915;-83
2022/11/07 13:38:23;;;;;;;;;;;;;;;8.41;100.00;99492.13;5133033;27;20336;-82
2022/11/07 13:40:57;;;;;;;;;;;;;;;8.42;100.00;99496.50;5134299;27;20374;-83
2022/11/07 13:43:32;;;;;;;;;;;;;;;8.46;100.00;99501.66;5134293;27;19966;-84
2022/11/07 13:46:01;;;;;;;;;;;;;;;8.49;100.00;99500.69;5132804;27;19941;-83
2022/11/07 13:48:29;;;;;;;;;;;;;;;8.52;100.00;99508.47;5134182;27;20281;-83
2022/11/07 13:51:04;;;;;;;;;;;;;;;8.56;100.00;99501.31;5134305;27;20010;-83
2022/11/07 13:53:36;;;;;;;;;;;;;;;8.58;100.00;99507.38;5151767;27;19923;-83
2022/11/07 13:56:20;;;;;;;;;;;;;;;8.61;100.00;99499.34;5154793;27;19948;-83
2022/11/07 13:58:48;;;;;;;;;;;;;;;8.62;100.00;99499.28;5154935;27;19922;-82
2022/11/07 14:01:13;;;;;;;;;;;;;;;8.63;100.00;99497.47;5154770;27;19916;-83
2022/11/07 14:03:39;;;;;;;;;;;;;;;8.65;100.00;99503.59;5154762;27;19922;-83
2022/11/07 14:06:05;;;;;;;;;;;;;;;8.63;100.00;99493.06;5154717;27;19938;-84
2022/11/07 14:08:31;;;;;;;;;;;;;;;8.66;100.00;99505.28;5153428;27;20297;-83
2022/11/07 14:10:57;;;;;;;;;;;;;;;8.67;100.00;99507.00;5154542;27;19958;-83
2022/11/07 14:13:23;;;;;;;;;;;;;;;8.71;100.00;99504.19;5154600;27;19962;-83
2022/11/07 14:15:49;;;;;;;;;;;;;;;8.71;100.00;99503.31;5154697;27;20271;-83
2022/11/07 14:18:16;;;;;;;;;;;;;;;8.72;100.00;99508.53;5154719;27;19915;-83
2022/11/07 14:20:45;;;;;;;;;;;;;;;8.73;100.00;99496.22;5154638;27;20445;-83
2022/11/07 14:23:10;;;;;;;;;;;;;;;8.74;100.00;99497.91;5153243;27;19919;-83
2022/11/07 14:25:36;;;;;;;;;;;;;;;8.76;100.00;99498.72;5154433;27;19925;-82
2022/11/07 14:28:04;;;;;;;;;;;;;;;8.78;100.00;99496.03;5154380;27;20289;-83
2022/11/07 14:30:30;;;;;;;;;;;;;;;8.78;100.00;99502.16;5154603;27;20002;-83
2022/11/07 14:32:57;;;;;;;;;;;;;;;8.80;100.00;99500.31;5154348;27;20013;-82
2022/11/07 14:35:24;;;;;;;;;;;;;;;8.82;100.00;99502.88;5154484;27;19915;-85
2022/11/07 14:37:50;;;;;;;;;;;;;;;8.82;100.00;99506.41;5154759;27;19911;-83
2022/11/07 14:40:15;;;;;;;;;;;;;;;8.81;100.00;99504.69;5156934;27;20361;-83
2022/11/07 14:42:41;;;;;;;;;;;;;;;8.83;100.00;99504.63;5158394;27;19915;-83
2022/11/07 14:45:10;;;;;;;;;;;;;;;8.84;100.00;99501.91;5158160;27;20437;-82
2022/11/07 14:47:35;;;;;;;;;;;;;;;8.85;100.00;99500.97;5158240;27;19915;-84
2022/11/07 14:50:01;;;;;;;;;;;;;;;8.88;100.00;99500.84;5158045;27;19911;-84
2022/11/07 14:52:33;;;;;;;;;;;;;;;8.89;100.00;99501.75;5139293;27;19919;-83
2022/11/07 14:55:06;;;;;;;;;;;;;;;8.90;100.00;99500.78;5156598;27;20353;-83
2022/11/07 14:57:33;;;;;;;;;;;;;;;8.92;100.00;99509.53;5158112;27;19919;-83
2022/11/07 14:59:58;;;;;;;;;;;;;;;8.94;100.00;99509.47;5139435;27;19923;-84
2022/11/07 15:02:28;;;;;;;;;;;;;;;8.96;100.00;99511.13;5157946;27;19916;-83
2022/11/07 15:04:54;;;;;;;;;;;;;;;8.97;100.00;99514.66;5157766;27;19922;-82
2022/11/07 15:07:22;;;;;;;;;;;;;;;8.99;100.00;99520.72;5157848;27;19919;-83
2022/11/07 15:09:47;;;;;;;;;;;;;;;8.98;100.00;99514.56;5156548;27;20169;-83
2022/11/07 15:12:18;;;;;;;;;;;;;;;9.02;100.00;99515.31;5139140;27;19923;-83
2022/11/07 15:14:44;;;;;;;;;;;;;;;9.02;100.00;99505.59;5157800;27;20389;-83
2022/11/07 15:17:35;;;;;;;;;;;;;;;9.06;100.00;99504.56;5139013;27;19991;-84
2022/11/07 15:20:04;;;;;;;;;;;;;;;9.08;100.00;99510.63;5137546;27;20377;-84
2022/11/07 15:22:30;;;;;;;;;;;;;;;9.12;100.00;99508.72;5157633;27;20289;-84
2022/11/07 15:24:56;;;;;;;;;;;;;;;9.14;100.00;99496.28;5156112;27;19919;-84
2022/11/07 15:27:28;;;;;;;;;;;;;;;9.17;100.00;99505.88;5157542;27;19921;-84
2022/11/07 15:29:53;;;;;;;;;;;;;;;9.20;100.00;99505.75;5157348;27;20365;-88
2022/11/07 15:32:20;;;;;;;;;;;;;;;9.19;100.00;99504.91;5157210;27;19919;-84
2022/11/07 15:34:47;;;;;;;;;;;;;;;9.21;100.00;99502.19;5157268;27;19915;-84
2022/11/07 15:37:16;;;;;;;;;;;;;;;9.21;100.00;99513.63;5157111;27;20378;-83
2022/11/07 15:39:41;;;;;;;;;;;;;;;9.23;100.00;99506.47;5155839;27;19962;-84
2022/11/07 15:42:06;;;;;;;;;;;;;;;9.27;100.00;99513.38;5157095;27;19915;-84
2022/11/07 15:44:32;;;;;;;;;;;;;;;9.30;100.00;99519.44;5157259;27;19937;-86
2022/11/07 15:46:57;;;;;;;;;;;;;;;9.29;100.00;99518.59;5139401;27;19920;-85
2022/11/07 15:49:23;;;;;;;;;;;;;;;9.35;100.00;99520.09;5144633;27;20390;-84
2022/11/07 15:51:51;;;;;;;;;;;;;;;9.37;100.00;99518.28;5149480;27;19927;-85
2022/11/07 15:54:17;;;;;;;;;;;;;;;9.38;100.00;99517.34;5142850;27;19919;-85
2022/11/07 15:56:44;;;;;;;;;;;;;;;9.41;100.00;99519.84;5127015;27;19960;-84
2022/11/07 15:59:19;;;;;;;;;;;;;;;9.41;100.00;99509.28;5144416;27;19919;-83
2022/11/07 16:01:45;;;;;;;;;;;;;;;9.44;100.00;99515.31;5123338;27;19980;-84
2022/11/07 16:04:10;;;;;;;;;;;;;;;9.47;100.00;99516.94;5126710;27;19919;-85
2022/11/07 16:06:36;;;;;;;;;;;;;;;9.48;100.00;99516.03;5146947;27;20358;-86
2022/11/07 16:09:02;;;;;;;;;;;;;;;9.51;100.00;99509.75;5148729;27;20410;-84
2022/11/07 16:11:27;;;;;;;;;;;;;;;9.54;100.00;99507.84;5143846;27;20362;-84
2022/11/07 16:13:53;;;;;;;;;;;;;;;9.51;100.00;99510.63;5156533;27;19923;-85
2022/11/07 16:16:20;;;;;;;;;;;;;;;9.55;100.00;99511.34;5152931;27;20018;-85
2022/11/07 16:18:48;;;;;;;;;;;;;;;9.57;100.00;99515.66;5135688;27;19907;-85
2022/11/07 16:21:14;;;;;;;;;;;;;;;9.58;100.00;99514.69;5135676;27;19915;-85
2022/11/07 16:23:41;;;;;;;;;;;;;;;9.58;100.00;99512.06;5134691;27;19919;-89
2022/11/07 16:26:09;;;;;;;;;;;;;;;9.61;100.00;99511.06;5117101;27;19968;-84
2022/11/07 16:28:34;;;;;;;;;;;;;;;9.61;100.00;99506.63;5135657;27;19937;-83
2022/11/07 16:31:00;;;;;;;;;;;;;;;10.23;100.00;99509.22;5135296;27;19915;-85
2022/11/07 16:33:29;;;;;;;;;;;;;;;10.19;100.00;99518.22;5135198;27;20400;-90
2022/11/07 16:35:55;;;;;;;;;;;;;;;9.94;100.00;99513.16;5147680;27;19915;-89
2022/11/07 16:38:21;;;;;;;;;;;;;;;9.88;100.00;99514.31;5135971;27;19916;-88
2022/11/07 16:40:47;;;;;;;;;;;;;;;9.85;100.00;99509.13;5155729;27;19968;-88
2022/11/07 16:43:13;;;;;;;;;;;;;;;9.84;100.00;99507.41;5153815;27;19962;-88
2022/11/07 16:45:43;;;;;;;;;;;;;;;9.84;100.00;99507.41;5143719;27;19922;-87
2022/11/07 16:48:16;;;;;;;;;;;;;;;9.86;100.00;99516.16;5116816;27;20332;-86
2022/11/07 16:50:41;;;;;;;;;;;;;;;9.86;100.00;99512.63;5116720;27;20002;-86
2022/11/07 16:53:09;;;;;;;;;;;;;;;9.87;100.00;99515.22;5133611;27;20064;-86
2022/11/07 16:55:35;;;;;;;;;;;;;;;9.86;100.00;99521.47;5135147;27;20361;-89
2022/11/07 16:58:00;;;;;;;;;;;;;;;9.86;100.00;99521.47;5134908;27;20014;-85
2022/11/07 17:00:25;;;;;;;;;;;;;;;9.88;100.00;99513.44;5116184;27;19915;-88
2022/11/07 17:02:51;;;;;;;;;;;;;;;9.90;100.00;99520.38;5134865;27;19962;-88
2022/11/07 17:05:16;;;;;;;;;;;;;;;9.92;100.00;99518.50;5116934;27;19937;-84
2022/11/07 17:07:47;;;;;;;;;;;;;;;9.94;100.00;99519.31;5146579;27;19950;-86
2022/11/07 17:10:14;;;;;;;;;;;;;;;9.94;100.00;99521.97;5142567;27;20437;-85
2022/11/07 17:12:40;;;;;;;;;;;;;;;9.95;100.00;99521.03;5147069;27;19915;-88
2022/11/07 17:15:05;;;;;;;;;;;;;;;9.95;100.00;99521.03;5140227;27;20288;-87
2022/11/07 17:17:30;;;;;;;;;;;;;;;9.96;100.00;99519.25;5132835;27;19915;-89
2022/11/07 17:19:56;;;;;;;;;;;;;;;9.98;100.00;99510.31;5140541;27;20346;-87
2022/11/07 17:22:21;;;;;;;;;;;;;;;10.00;100.00;99499.66;5139645;27;19915;-86
2022/11/07 17:24:46;;;;;;;;;;;;;;;10.02;100.00;99515.47;5131719;27;20365;-88
2022/11/07 17:27:18;;;;;;;;;;;;;;;10.03;100.00;99527.78;5124639;27;20282;-88
2022/11/07 17:29:43;;;;;;;;;;;;;;;10.04;100.00;99526.88;5127521;27;20377;-89
2022/11/07 17:32:08;;;;;;;;;;;;;;;10.04;100.00;99521.56;5149437;27;19967;-86
2022/11/07 17:34:33;;;;;;;;;;;;;;;10.03;100.00;99520.69;5138105;27;19916;-89
2022/11/07 17:36:59;;;;;;;;;;;;;;;10.02;100.00;99519.00;5146539;27;20018;-87
2022/11/07 17:39:25;;;;;;;;;;;;;;;10.03;100.00;99522.47;5133371;27;19923;-88
2022/11/07 17:41:50;;;;;;;;;;;;;;;10.05;100.00;99526.78;5134294;27;20290;-85
2022/11/07 17:44:16;;;;;;;;;;;;;;;10.08;100.00;99525.78;5134205;27;19915;-86
2022/11/07 17:46:43;;;;;;;;;;;;;;;10.06;100.00;99527.66;5134185;27;19923;-88
2022/11/07 17:49:09;;;;;;;;;;;;;;;10.06;100.00;99522.34;5115848;27;19911;-87
2022/11/07 17:51:35;;;;;;;;;;;;;;;10.08;100.00;99523.97;5115525;27;19969;-89
2022/11/07 17:54:00;;;;;;;;;;;;;;;10.07;100.00;99529.34;5133380;27;19915;-84
2022/11/07 17:56:29;;;;;;;;;;;;;;;10.11;100.00;99530.94;5134000;27;20301;-86
2022/11/07 17:58:57;;;;;;;;;;;;;;;10.11;100.00;99530.94;5134155;27;19968;-88
2022/11/07 18:01:23;;;;;;;;;;;;;;;10.12;100.00;99527.38;5134137;27;20378;-87
2022/11/07 18:03:58;;;;;;;;;;;;;;;10.11;100.00;99526.50;5134090;27;19919;-87
2022/11/07 18:06:24;;;;;;;;;;;;;;;10.13;100.00;99529.94;5115562;27;19924;-86
2022/11/07 18:08:50;;;;;;;;;;;;;;;10.13;100.00;99529.06;5114844;28;19923;-89
2022/11/07 18:11:16;;;;;;;;;;;;;;;10.14;100.00;99530.81;5115571;27;19916;-87
2022/11/07 18:13:41;;;;;;;;;;;;;;;10.14;100.00;99536.09;5135803;27;19924;-89
2022/11/07 18:16:12;;;;;;;;;;;;;;;10.14;100.00;99530.81;5119870;27;19915;-87
2022/11/07 18:18:38;;;;;;;;;;;;;;;10.14;100.00;99522.84;5138227;27;19916;-89
2022/11/07 18:21:04;;;;;;;;;;;;;;;10.14;100.00;99525.50;5119853;27;19921;-86
2022/11/07 18:23:29;;;;;;;;;;;;;;;10.14;100.00;99513.13;5136874;27;19920;-88
2022/11/07 18:26:04;;;;;;;;;;;;;;;10.17;100.00;99514.78;5137997;27;19916;-89
2022/11/07 18:28:30;;;;;;;;;;;;;;;10.17;100.00;99518.28;5119456;27;19924;-88
2022/11/07 18:31:02;;;;;;;;;;;;;;;10.18;100.00;99516.50;5127365;27;19919;-88
2022/11/07 18:33:31;;;;;;;;;;;;;;;10.16;100.00;99519.22;5123862;27;20011;-88
2022/11/07 18:35:57;;;;;;;;;;;;;;;10.17;100.00;99514.78;5155772;27;19919;-88
2022/11/07 18:38:22;;;;;;;;;;;;;;;10.18;100.00;99513.88;5138739;27;19972;-88
2022/11/07 18:40:54;;;;;;;;;;;;;;;10.18;100.00;99513.88;5143034;27;20385;-88
2022/11/07 18:43:20;;;;;;;;;;;;;;;10.21;100.00;99512.84;5137577;27;20009;-88
2022/11/07 18:45:45;;;;;;;;;;;;;;;10.21;100.00;99510.19;5119235;27;20405;-87
2022/11/07 18:48:10;;;;;;;;;;;;;;;10.23;100.00;99525.09;5119208;27;19998;-89
2022/11/07 18:50:39;;;;;;;;;;;;;;;10.23;100.00;99516.28;5137250;27;20387;-90
2022/11/07 18:53:04;;;;;;;;;;;;;;;10.22;100.00;99512.78;5114947;28;20417;-88
2022/11/07 18:55:29;;;;;;;;;;;;;;;10.65;100.00;99508.16;5116138;27;19959;-84
2022/11/07 18:57:58;;;;;;;;;;;;;;;12.65;100.00;99504.13;5121955;27;19924;-93
2022/11/07 19:00:23;;;;;;;;;;;;;;;13.18;100.00;99502.88;5136119;27;19923;-86
2022/11/07 19:02:49;;;;;;;;;;;;;;;13.47;100.00;99502.16;5119740;27;20304;-86
2022/11/07 19:05:16;;;;;;;;;;;;;;;13.51;100.00;99499.19;5116519;28;19937;-85
2022/11/07 19:07:43;;;;;;;;;;;;;;;13.48;100.00;99496.69;5119755;27;19919;-87
2022/11/07 19:10:08;;;;;;;;;;;;;;;13.60;100.00;99509.28;5118732;27;19938;-86
2022/11/07 19:12:34;;;;;;;;;;;;;;;13.63;100.00;99500.28;5116227;28;20368;-86
2022/11/07 19:14:59;;;;;;;;;;;;;;;13.52;100.00;99508.91;5116378;28;19927;-86
2022/11/07 19:17:25;;;;;;;;;;;;;;;13.42;100.00;99510.41;5116207;28;20382;-86
2022/11/07 19:19:50;;;;;;;;;;;;;;;13.18;100.00;99510.84;5123257;27;19920;-85
2022/11/07 19:22:16;;;;;;;;;;;;;;;13.07;100.00;99507.97;5121730;27;19920;-85
2022/11/07 19:24:41;;;;;;;;;;;;;;;13.03;100.00;99503.75;5126031;27;19923;-86
2022/11/07 19:27:10;;;;;;;;;;;;;;;12.98;100.00;99505.81;5134638;27;19915;-85
2022/11/07 19:29:36;;;;;;;;;;;;;;;12.82;100.00;99505.84;5137053;27;20277;-86
2022/11/07 19:32:01;;;;;;;;;;;;;;;12.55;100.00;99503.78;5135411;27;19921;-85
2022/11/07 19:34:26;;;;;;;;;;;;;;;12.46;100.00;99505.16;5128314;27;19958;-85
2022/11/07 19:36:52;;;;;;;;;;;;;;;12.44;100.00;99506.16;5116104;27;19968;-85
2022/11/07 19:39:17;;;;;;;;;;;;;;;12.45;100.00;99511.41;5124085;27;20300;-84
2022/11/07 19:41:42;;;;;;;;;;;;;;;12.68;100.00;99511.91;5126177;27;20390;-86
2022/11/07 19:44:07;;;;;;;;;;;;;;;12.70;100.00;99507.38;5115819;28;20057;-84
2022/11/07 19:46:33;;;;;;;;;;;;;;;12.60;100.00;99500.88;5115793;28;20375;-84
2022/11/07 19:48:58;;;;;;;;;;;;;;;12.46;100.00;99504.28;5115767;28;19935;-85
2022/11/07 19:51:23;;;;;;;;;;;;;;;12.53;100.00;99503.84;5115543;28;19915;-86
2022/11/07 19:53:53;;;;;;;;;;;;;;;12.60;100.00;99501.72;5133903;27;20328;-85
2022/11/07 19:56:18;;;;;;;;;;;;;;;12.66;100.00;99511.16;5136582;27;20391;-85